Time;durP1;ratioP1;P1;durP2;ratioP2;P2;SDS_P1;SDS_P2;PMS_P1;PMS_P2;Temp;Humidity;BMP_temperature;BMP_pressure;BME280_temperature;BME280_humidity;BME280_pressure;Samples;Min_cycle;Max_cycle;Signal;HPM_P1;HPM_P2
2022/02/06 00:01:59;;;;;;;5.37;2.30;;;4.10;75.00;;;2.68;74.79;98390.66;5055722;28;20972;-85
2022/02/06 00:04:27;;;;;;;5.10;2.27;;;4.10;74.80;;;2.68;74.58;98383.47;5056891;28;20434;-84
2022/02/06 00:06:54;;;;;;;7.50;2.80;;;4.10;74.80;;;2.73;74.54;98385.69;5056690;28;20473;-85
2022/02/06 00:09:21;;;;;;;3.40;1.83;;;4.10;74.70;;;2.71;73.86;98379.69;5055585;28;20444;-86
2022/02/06 00:11:48;;;;;;;5.47;2.50;;;4.10;74.40;;;2.69;73.88;98369.16;5053372;28;20526;-85
2022/02/06 00:14:15;;;;;;;6.53;2.30;;;4.20;74.10;;;2.68;73.94;98382.66;5054461;28;20839;-85
2022/02/06 00:16:42;;;;;;;4.43;2.13;;;4.10;74.30;;;2.78;73.14;98378.03;5054559;28;20604;-85
2022/02/06 00:19:09;;;;;;;4.57;2.50;;;4.20;74.10;;;2.79;73.64;98358.38;5055762;28;20524;-84
2022/02/06 00:21:37;;;;;;;7.87;2.37;;;4.20;73.80;;;2.75;73.67;98366.88;5057248;28;20506;-85
2022/02/06 00:24:08;;;;;;;3.90;2.50;;;4.20;73.90;;;2.75;73.66;98370.34;5063920;28;20438;-87
2022/02/06 00:26:36;;;;;;;4.67;2.40;;;4.20;73.90;;;2.94;72.78;98357.78;5070599;28;20426;-86
2022/02/06 00:29:16;;;;;;;5.00;2.40;;;4.30;73.60;;;2.83;72.64;98349.06;5076359;28;20437;-86
2022/02/06 00:31:55;;;;;;;6.07;2.17;;;4.20;73.20;;;2.86;72.93;98344.41;5065350;28;20450;-86
2022/02/06 00:34:46;;;;;;;4.07;2.53;;;4.30;73.30;;;2.77;73.19;98320.31;5067259;28;20452;-84
2022/02/06 00:40:00;;;;;;;4.03;2.30;;;4.20;73.10;;;2.85;73.29;98330.22;5069869;28;20434;-83
2022/02/06 00:42:27;;;;;;;5.13;2.23;;;4.30;73.40;;;2.85;72.30;98329.38;5054916;28;20436;-84
2022/02/06 00:44:54;;;;;;;4.20;2.40;;;4.30;72.90;;;2.95;71.99;98330.94;5069681;28;20438;-85
2022/02/06 00:47:21;;;;;;;4.83;2.40;;;4.30;72.80;;;2.95;71.89;98335.44;5035801;28;20848;-83
2022/02/06 00:49:49;;;;;;;3.97;1.70;;;4.30;72.60;;;2.98;71.82;98319.13;5053861;28;20528;-82
2022/02/06 00:52:24;;;;;;;4.00;2.47;;;4.40;72.50;;;2.87;72.00;98311.38;5052305;28;20445;-84
2022/02/06 00:54:51;;;;;;;3.70;2.40;;;4.30;72.20;;;2.52;72.12;98250.84;5054037;28;20471;-83
2022/02/06 00:57:18;;;;;;;4.87;2.30;;;4.30;72.40;;;2.96;71.83;98315.78;5054044;28;20469;-83
2022/02/06 00:59:45;;;;;;;6.40;2.40;;;4.30;72.50;;;2.90;71.62;98309.25;5053792;28;21004;-82
2022/02/06 01:02:11;;;;;;;3.70;2.77;;;4.30;72.30;;;2.91;72.60;98307.41;5054123;28;20536;-83
2022/02/06 01:04:38;;;;;;;4.97;1.80;;;4.30;72.50;;;2.89;71.90;98314.72;5054020;28;20469;-83
2022/02/06 01:07:05;;;;;;;5.73;2.50;;;4.30;72.20;;;2.87;72.15;98311.38;5052895;28;20532;-85
2022/02/06 01:09:34;;;;;;;4.07;2.03;;;4.30;72.60;;;2.94;71.89;98309.72;5052442;28;20785;-83
2022/02/06 01:12:00;;;;;;;3.97;2.47;;;4.40;72.30;;;2.67;71.81;98247.59;5052927;28;20453;-84
2022/02/06 01:14:41;;;;;;;4.10;2.07;;;4.40;72.30;;;2.88;72.71;98303.22;5052651;28;20527;-84
2022/02/06 01:17:19;;;;;;;8.97;2.40;;;4.40;72.40;;;2.91;71.75;98286.03;5070618;28;20441;-84
2022/02/06 01:19:56;;;;;;;4.17;2.37;;;4.40;72.30;;;2.72;72.41;98287.94;5054457;28;20437;-83
2022/02/06 01:22:26;;;;;;;4.43;2.27;;;4.30;72.30;;;2.79;72.62;98288.16;5053890;28;20437;-83
2022/02/06 01:25:06;;;;;;;5.60;2.30;;;4.30;72.60;;;2.83;72.36;98290.34;5054613;28;20446;-83
2022/02/06 01:27:41;;;;;;;2.63;2.00;;;4.30;72.40;;;2.82;72.24;98288.69;5053858;28;20533;-80
2022/02/06 01:30:15;;;;;;;5.67;2.27;;;4.30;72.50;;;2.90;72.34;98284.38;5053667;28;20928;-80
2022/02/06 01:32:49;;;;;;;3.67;1.90;;;4.30;72.20;;;2.91;71.58;98281.56;5068747;28;20441;-79
2022/02/06 01:35:25;;;;;;;5.23;2.17;;;4.30;72.10;;;2.87;71.73;98274.00;5069304;28;20461;-80
2022/02/06 01:37:59;;;;;;;5.63;2.57;;;4.30;72.10;;;2.90;71.56;98273.69;5068855;28;20437;-81
2022/02/06 01:40:38;;;;;;;7.63;2.20;;;4.30;72.00;;;2.90;71.93;98276.38;5055112;28;20451;-83
2022/02/06 01:43:08;;;;;;;3.40;2.00;;;4.30;72.00;;;2.85;72.08;98270.69;5056316;28;20823;-82
2022/02/06 02:02:36;;;;;;;5.00;2.10;;;4.20;72.10;;;2.73;72.59;98236.25;5056739;28;20420;-81
2022/02/06 02:08:13;;;;;;;7.00;3.00;;;4.30;72.00;;;2.80;73.58;98225.78;5071699;28;20437;-81
2022/02/06 02:10:56;;;;;;;3.07;1.70;;;4.20;72.70;;;2.81;72.67;98220.28;5056460;28;20583;-83
2022/02/06 02:16:45;;;;;;;6.03;1.90;;;4.30;71.70;;;2.80;72.50;98205.25;5024728;28;20469;-81
2022/02/06 02:19:32;;;;;;;5.07;1.77;;;4.30;72.20;;;2.88;70.83;98195.63;5055079;28;20445;-80
2022/02/06 02:22:32;;;;;;;4.53;1.60;;;4.30;71.30;;;2.84;71.63;98187.09;5072416;28;20446;-84
2022/02/06 02:25:24;;;;;;;3.13;1.50;;;4.30;71.60;;;2.87;71.59;98184.09;5063203;28;20477;-82
2022/02/06 02:28:06;;;;;;;1.87;1.30;;;4.30;71.50;;;2.91;71.77;98173.94;5072883;28;20533;-82
2022/02/06 02:47:14;;;;;;;4.13;1.30;;;4.40;71.60;;;2.95;71.30;98130.75;5055034;28;20453;-84
2022/02/06 02:49:45;;;;;;;1.67;0.87;;;4.40;71.30;;;2.94;70.71;98125.56;5055905;28;20820;-83
2022/02/06 02:52:21;;;;;;;4.20;1.37;;;4.40;71.10;;;3.02;71.14;98133.59;5056482;28;20501;-83
2022/02/06 02:54:53;;;;;;;3.17;1.87;;;4.40;71.10;;;2.90;71.56;98135.75;5054769;28;20968;-83
2022/02/06 02:57:26;;;;;;;6.63;1.67;;;4.40;71.50;;;2.80;71.72;98129.72;5055815;28;20437;-83
2022/02/06 03:00:04;;;;;;;3.30;1.60;;;4.30;71.20;;;2.75;71.75;98124.84;5055895;28;20452;-84
2022/02/06 03:02:31;;;;;;;4.17;1.77;;;4.30;71.50;;;2.77;71.83;98114.03;5056020;28;20433;-82
2022/02/06 03:05:00;;;;;;;6.13;2.20;;;4.20;71.60;;;2.83;71.22;98113.38;5056005;28;20474;-82
2022/02/06 03:07:27;;;;;;;3.13;1.50;;;4.30;71.30;;;2.72;71.74;98108.31;5055828;28;20437;-82
2022/02/06 03:09:55;;;;;;;2.40;1.10;;;4.20;71.00;;;2.75;72.18;98100.84;5055196;28;20789;-83
2022/02/06 03:12:27;;;;;;;6.03;1.70;;;4.20;71.40;;;2.67;71.25;98108.84;5055115;28;20524;-82
2022/02/06 03:15:01;;;;;;;4.20;1.47;;;4.20;71.10;;;2.67;71.57;98090.97;5053660;28;20456;-81
2022/02/06 03:17:37;;;;;;;4.33;1.80;;;4.10;71.10;;;2.59;71.85;98098.13;5054486;28;20441;-81
2022/02/06 03:20:11;;;;;;;4.10;1.57;;;4.10;71.10;;;2.64;71.58;98085.13;5055353;28;20441;-81
2022/02/06 03:22:49;;;;;;;2.77;1.47;;;4.10;71.30;;;2.50;71.87;98073.28;5054236;28;20822;-81
2022/02/06 03:25:20;;;;;;;4.40;1.97;;;4.10;70.90;;;2.40;72.21;98063.56;5055131;28;20449;-83
2022/02/06 03:27:47;;;;;;;2.10;1.23;;;4.00;71.00;;;2.55;72.26;98069.13;5053908;28;20446;-81
2022/02/06 03:30:14;;;;;;;5.00;1.37;;;4.00;71.20;;;2.54;71.53;98061.25;5053769;28;20460;-83
2022/02/06 03:32:41;;;;;;;5.00;1.47;;;4.00;70.90;;;2.63;70.76;98070.97;5055203;28;20524;-82
2022/02/06 03:35:09;;;;;;;6.90;1.40;;;4.10;70.60;;;2.64;71.70;98058.44;5055547;28;20434;-82
2022/02/06 03:37:36;;;;;;;3.53;1.30;;;4.10;70.90;;;2.75;71.03;98058.16;5054558;28;20438;-80
2022/02/06 03:40:08;;;;;;;4.70;1.53;;;4.10;71.00;;;2.65;70.56;98057.44;5053483;28;20532;-82
2022/02/06 03:42:45;;;;;;;5.30;1.60;;;4.10;70.40;;;2.54;71.72;98050.59;5070434;28;20563;-82
2022/02/06 03:45:18;;;;;;;5.00;1.30;;;4.10;70.80;;;2.65;70.63;98058.31;5054501;28;20441;-83
2022/02/06 03:47:47;;;;;;;3.27;1.67;;;4.10;70.40;;;2.65;70.83;98044.09;5054768;28;20491;-84
2022/02/06 03:50:17;;;;;;;1.67;1.47;;;4.10;70.10;;;2.49;71.53;98039.59;5055993;28;20445;-83
2022/02/06 03:52:47;;;;;;;4.67;2.37;;;4.00;70.50;;;2.53;71.19;98041.78;5060157;28;20437;-82
2022/02/06 03:55:19;;;;;;;5.07;1.50;;;4.00;70.40;;;2.64;70.43;98048.63;5068483;28;20430;-81
2022/02/06 03:57:49;;;;;;;4.27;1.83;;;4.10;70.20;;;2.57;71.06;98038.78;5062121;28;20461;-81
2022/02/06 04:00:18;;;;;;;3.83;1.50;;;4.10;70.20;;;2.32;71.25;98006.69;5057281;28;20524;-81
2022/02/06 04:02:46;;;;;;;2.40;1.30;;;4.00;70.60;;;2.40;72.50;98025.41;5053968;28;20438;-80
2022/02/06 04:05:15;;;;;;;2.60;1.03;;;3.90;71.10;;;2.48;72.61;98022.75;5053565;28;20520;-81
2022/02/06 04:07:42;;;;;;;3.50;1.70;;;3.90;71.30;;;2.54;70.92;98019.44;5056941;28;20436;-82
2022/02/06 04:10:12;;;;;;;3.23;1.87;;;3.90;70.60;;;2.45;71.82;98012.41;5064047;28;20524;-81
2022/02/06 04:12:41;;;;;;;6.40;1.37;;;3.90;70.50;;;2.41;71.19;98013.75;5067521;28;20449;-83
2022/02/06 04:15:19;;;;;;;5.23;1.23;;;3.90;70.40;;;2.48;71.39;98009.41;5071822;28;20434;-81
2022/02/06 04:17:55;;;;;;;4.57;1.53;;;4.00;70.70;;;2.60;71.50;98022.44;5054931;28;20452;-79
2022/02/06 04:20:22;;;;;;;3.50;1.73;;;4.00;70.40;;;2.46;70.69;97994.59;5053031;28;20434;-82
2022/02/06 04:22:49;;;;;;;3.23;1.30;;;4.00;70.50;;;2.52;71.03;98010.78;5054784;28;20477;-82
2022/02/06 04:25:16;;;;;;;2.50;1.60;;;4.00;70.30;;;2.57;71.33;98007.59;5054092;28;20897;-81
2022/02/06 04:27:43;;;;;;;4.80;1.30;;;4.10;70.40;;;2.59;71.07;98010.09;5054599;28;20478;-82
2022/02/06 04:30:12;;;;;;;3.70;1.50;;;4.10;70.10;;;2.59;71.84;98007.44;5053152;28;20846;-83
2022/02/06 04:32:39;;;;;;;3.47;1.37;;;4.10;70.70;;;2.74;70.55;98005.78;5054223;28;20929;-81
2022/02/06 04:35:09;;;;;;;4.23;2.30;;;4.10;69.90;;;2.61;71.23;98010.75;5053921;28;20991;-81
2022/02/06 04:37:42;;;;;;;7.67;1.37;;;4.10;70.40;;;2.65;71.16;98001.44;5069503;28;20948;-83
2022/02/06 04:40:21;;;;;;;2.83;1.10;;;4.10;70.30;;;2.75;70.45;98004.78;5053564;28;20827;-86
2022/02/06 04:43:21;;;;;;;5.63;1.63;;;4.20;70.10;;;2.30;71.22;97931.38;5055825;28;20429;-83
2022/02/06 04:48:59;;;;;;;5.83;1.70;;;4.20;70.00;;;2.76;71.08;97992.28;5062646;28;20944;-80
2022/02/06 04:51:58;;;;;;;5.30;1.33;;;4.20;70.50;;;2.68;71.44;97972.59;5053916;28;20422;-81
2022/02/06 04:54:47;;;;;;;3.43;1.27;;;4.20;70.70;;;2.74;70.95;97976.44;5053420;28;20449;-82
2022/02/06 05:11:31;;;;;;;8.90;2.13;;;4.30;70.50;;;2.78;70.46;97975.09;5054394;28;20495;-79
2022/02/06 05:14:22;;;;;;;4.23;1.20;;;4.20;70.00;;;2.77;71.12;97961.94;5053497;28;20438;-81
2022/02/06 05:20:22;;;;;;;4.10;1.53;;;4.20;70.20;;;2.75;70.78;97951.41;5015565;28;20506;-81
2022/02/06 05:28:28;;;;;;;5.03;1.60;;;4.20;70.20;;;2.83;71.67;97927.41;5054521;28;20829;-82
2022/02/06 05:31:02;;;;;;;5.60;1.20;;;4.20;70.80;;;2.78;70.53;97915.56;5073054;28;20448;-82
2022/02/06 05:33:29;;;;;;;4.53;1.30;;;4.20;70.50;;;2.89;69.96;97911.72;5056300;28;20441;-81
2022/02/06 05:35:58;;;;;;;10.00;1.47;;;4.30;70.00;;;2.90;71.28;97913.38;5057740;28;20489;-83
2022/02/06 05:38:27;;;;;;;3.60;1.37;;;4.30;70.60;;;2.82;70.42;97911.56;5056930;28;20486;-83
2022/02/06 05:40:54;;;;;;;1.30;0.80;;;4.30;70.00;;;2.94;70.14;97914.69;5057087;28;20933;-81
2022/02/06 05:43:21;;;;;;;7.47;1.40;;;4.30;70.00;;;2.86;71.49;97920.06;5058090;28;20469;-81
2022/02/06 05:45:48;;;;;;;4.03;1.60;;;4.30;70.50;;;2.82;70.21;97920.41;5057623;28;20473;-82
2022/02/06 05:48:15;;;;;;;4.47;1.07;;;4.30;69.90;;;2.73;71.00;97947.22;5057577;28;20509;-83
2022/02/06 05:50:43;;;;;;;2.97;1.30;;;4.20;69.80;;;2.82;71.06;97936.41;5074828;28;20847;-81
2022/02/06 05:53:12;;;;;;;5.37;1.67;;;4.30;70.20;;;2.69;71.92;97920.91;5059007;28;20438;-81
2022/02/06 05:55:40;;;;;;;2.50;1.47;;;4.20;70.60;;;2.69;70.59;97909.41;5059779;28;20432;-84
2022/02/06 05:58:07;;;;;;;7.23;1.43;;;4.20;69.90;;;2.74;70.53;97933.75;5057730;28;20468;-85
2022/02/06 06:00:34;;;;;;;8.90;1.30;;;4.20;70.00;;;2.74;72.37;97917.72;5057506;28;20897;-79
2022/02/06 06:03:04;;;;;;;2.40;1.60;;;4.20;71.10;;;2.67;71.00;97922.09;5073416;28;20447;-78
2022/02/06 06:05:31;;;;;;;6.23;2.03;;;4.20;70.20;;;2.75;69.98;97910.56;5055790;28;20465;-80
2022/02/06 06:07:58;;;;;;;2.50;1.50;;;4.20;69.70;;;2.73;71.16;97908.06;5057962;28;20500;-84
2022/02/06 06:10:27;;;;;;;2.40;1.10;;;4.20;70.40;;;2.85;69.88;97908.53;5054631;28;20542;-83
2022/02/06 06:12:54;;;;;;;3.13;1.33;;;4.30;69.90;;;2.73;70.68;97916.06;5056841;28;20518;-81
2022/02/06 06:15:21;;;;;;;5.50;2.00;;;4.20;69.80;;;2.77;70.83;97901.38;5057156;28;20433;-80
2022/02/06 06:17:48;;;;;;;4.80;1.53;;;4.30;70.10;;;2.73;69.88;97885.88;5057231;28;20461;-76
2022/02/06 06:20:18;;;;;;;4.00;1.50;;;4.30;69.50;;;2.82;70.13;97887.53;5057231;28;20441;-83
2022/02/06 06:22:47;;;;;;;2.40;1.10;;;4.30;69.60;;;2.89;69.65;97893.03;5056670;28;20433;-81
2022/02/06 06:25:14;;;;;;;3.70;1.17;;;4.30;69.50;;;2.92;69.60;97877.53;5056691;28;20442;-82
2022/02/06 06:27:42;;;;;;;2.53;1.10;;;4.40;69.40;;;2.95;69.61;97876.31;5056123;28;20521;-82
2022/02/06 06:30:10;;;;;;;4.03;1.93;;;4.40;69.00;;;3.07;69.99;97882.16;5055864;28;20956;-80
2022/02/06 06:32:37;;;;;;;6.23;1.50;;;4.50;69.70;;;3.11;69.43;97889.66;5059647;28;20453;-81
2022/02/06 06:35:06;;;;;;;2.97;1.30;;;4.50;68.90;;;3.02;68.83;97877.31;5058021;28;20442;-81
2022/02/06 06:37:38;;;;;;;2.70;1.03;;;4.50;69.00;;;3.11;68.57;97878.97;5051761;28;20474;-81
2022/02/06 06:40:06;;;;;;;2.73;1.17;;;4.50;68.70;;;3.10;69.78;97869.28;5040366;28;20521;-79
2022/02/06 06:42:33;;;;;;;5.77;2.00;;;4.50;69.40;;;3.07;68.89;97879.50;5056359;28;20474;-79
2022/02/06 06:45:01;;;;;;;2.77;1.10;;;4.60;68.80;;;3.21;67.77;97886.81;5037454;28;20430;-84
2022/02/06 06:47:28;;;;;;;1.17;1.10;;;4.70;68.40;;;3.29;67.88;97879.75;5035256;28;20442;-84
2022/02/06 06:49:56;;;;;;;2.70;1.20;;;4.70;68.10;;;3.09;68.44;97862.28;5034995;28;20458;-84
2022/02/06 06:52:23;;;;;;;3.00;0.80;;;4.60;68.20;;;3.26;67.73;97888.94;5052581;28;20447;-84
2022/02/06 06:54:59;;;;;;;2.77;1.20;;;4.70;68.10;;;3.36;67.29;97894.91;5037093;28;20459;-86
2022/02/06 06:57:30;;;;;;;3.20;1.30;;;4.70;68.00;;;3.39;67.47;97883.06;5037948;28;20457;-85
2022/02/06 07:02:43;;;;;;;3.83;1.10;;;4.70;68.10;;;3.42;67.47;97882.72;5055485;28;20438;-85
2022/02/06 07:05:10;;;;;;;3.23;1.80;;;4.80;67.90;;;3.49;67.64;97878.34;5041485;28;20434;-85
2022/02/06 07:07:37;;;;;;;2.40;1.27;;;4.90;67.70;;;3.52;67.83;97882.50;5039754;28;20874;-87
2022/02/06 07:10:06;;;;;;;3.43;1.20;;;4.90;67.70;;;3.40;67.73;97869.50;5057762;28;20450;-86
2022/02/06 07:12:33;;;;;;;2.63;1.40;;;4.80;67.60;;;3.47;67.57;97858.97;5038611;28;20438;-77
2022/02/06 07:15:00;;;;;;;4.77;1.40;;;4.90;67.70;;;3.46;67.44;97843.94;5035357;28;20466;-76
2022/02/06 07:17:28;;;;;;;3.47;1.23;;;4.90;67.80;;;3.48;67.51;97854.47;5050259;28;20991;-78
2022/02/06 07:19:56;;;;;;;3.80;1.73;;;4.90;67.60;;;3.67;66.57;97861.25;5034903;28;20918;-77
2022/02/06 07:22:23;;;;;;;3.33;1.33;;;5.00;67.50;;;3.67;67.55;97859.38;5034815;28;20444;-76
2022/02/06 07:24:53;;;;;;;3.03;1.33;;;5.00;67.50;;;3.75;66.61;97855.03;5050407;28;20782;-76
2022/02/06 07:27:24;;;;;;;5.40;1.30;;;5.10;67.40;;;3.69;67.07;97857.38;5050772;28;20496;-75
2022/02/06 07:29:52;;;;;;;2.70;1.10;;;5.10;67.60;;;3.62;66.53;97850.22;5034748;28;20449;-82
2022/02/06 07:32:20;;;;;;;2.50;1.00;;;5.10;67.10;;;3.73;66.36;97841.00;5035759;28;20461;-79
2022/02/06 07:34:47;;;;;;;4.83;1.60;;;5.10;67.10;;;3.63;66.69;97835.84;5035122;28;20903;-80
2022/02/06 07:37:15;;;;;;;3.77;1.03;;;5.10;67.30;;;3.47;66.96;97813.56;5049992;28;20476;-79
2022/02/06 07:39:44;;;;;;;3.47;1.60;;;5.10;67.00;;;3.71;67.30;97846.50;5036920;28;20530;-84
2022/02/06 07:42:12;;;;;;;2.70;1.30;;;5.10;67.30;;;3.72;67.46;97850.03;5038252;28;20430;-84
2022/02/06 07:44:39;;;;;;;3.17;1.73;;;5.20;67.20;;;3.77;66.76;97840.44;5038084;28;20596;-83
2022/02/06 07:47:14;;;;;;;4.00;1.50;;;5.20;67.20;;;3.66;66.96;97820.31;5037116;28;20439;-81
2022/02/06 07:49:44;;;;;;;2.67;1.40;;;5.20;67.40;;;3.85;67.32;97847.59;5036179;28;20434;-76
2022/02/06 07:52:10;;;;;;;7.23;1.40;;;5.20;67.20;;;3.90;66.62;97839.88;5058480;28;20461;-77
2022/02/06 07:54:39;;;;;;;4.00;1.10;;;5.30;67.20;;;3.81;67.14;97840.94;5050309;28;20438;-81
2022/02/06 07:57:07;;;;;;;4.17;1.40;;;5.20;67.30;;;3.69;67.10;97822.63;5052735;28;20462;-84
2022/02/06 07:59:34;;;;;;;4.67;1.80;;;5.20;67.30;;;4.00;67.27;97841.47;5053745;28;20992;-83
2022/02/06 08:02:03;;;;;;;1.77;1.20;;;5.30;67.30;;;3.81;66.52;97782.13;5043874;28;20475;-83
2022/02/06 08:04:30;;;;;;;2.90;1.30;;;5.40;67.00;;;4.03;66.83;97806.41;5036215;28;20445;-82
2022/02/06 08:06:57;;;;;;;3.80;1.50;;;5.50;67.10;;;4.04;66.95;97794.69;5035908;28;20450;-83
2022/02/06 08:09:37;;;;;;;5.00;1.80;;;5.40;67.00;;;4.13;67.05;97790.09;5034543;28;20450;-83
2022/02/06 08:12:08;;;;;;;4.33;1.67;;;5.50;67.10;;;4.20;66.14;97789.22;5035294;28;20431;-83
2022/02/06 08:14:51;;;;;;;5.60;1.60;;;5.60;67.00;;;4.18;66.29;97780.53;5035900;28;20484;-82
2022/02/06 08:17:20;;;;;;;3.03;1.30;;;5.50;67.00;;;4.22;66.67;97772.97;5037764;28;20458;-85
2022/02/06 08:19:48;;;;;;;2.77;1.47;;;5.60;66.90;;;4.24;66.47;97770.94;5052032;28;20458;-84
2022/02/06 08:22:15;;;;;;;7.70;2.10;;;5.70;66.80;;;4.28;65.56;97752.69;5035299;28;20566;-84
2022/02/06 08:24:43;;;;;;;8.20;1.50;;;5.70;66.80;;;4.41;65.90;97768.94;5050385;28;20470;-84
2022/02/06 08:27:12;;;;;;;2.40;1.27;;;5.80;66.70;;;4.47;65.63;97768.22;5030706;28;20537;-83
2022/02/06 08:29:41;;;;;;;4.53;1.60;;;5.80;66.60;;;4.46;65.91;97750.50;5033387;28;20493;-84
2022/02/06 08:32:09;;;;;;;4.57;1.47;;;5.90;66.50;;;4.53;65.87;97754.13;5032552;28;20765;-83
2022/02/06 08:34:38;;;;;;;3.80;1.40;;;5.90;66.40;;;4.59;65.51;97759.75;5034513;28;20557;-84
2022/02/06 08:37:06;;;;;;;3.13;1.30;;;6.00;66.50;;;4.43;66.06;97734.81;5034872;28;20462;-83
2022/02/06 08:39:35;;;;;;;2.87;1.03;;;5.90;66.30;;;4.61;65.76;97753.19;5040763;28;20447;-85
2022/02/06 08:42:06;;;;;;;3.27;1.50;;;6.00;66.30;;;4.29;66.08;97716.91;5034684;28;20470;-83
2022/02/06 08:44:35;;;;;;;4.47;1.40;;;5.80;66.30;;;4.57;66.27;97749.25;5033681;28;20522;-84
2022/02/06 08:47:02;;;;;;;3.93;1.50;;;5.90;66.70;;;4.73;65.49;97721.44;5048975;28;20470;-71
2022/02/06 08:49:29;;;;;;;4.03;1.73;;;6.10;66.40;;;4.65;64.88;97734.94;5051990;28;20798;-76
2022/02/06 08:51:56;;;;;;;3.13;1.53;;;6.00;66.20;;;4.42;66.22;97717.09;5038808;28;20470;-79
2022/02/06 08:54:27;;;;;;;3.00;1.07;;;5.90;66.20;;;4.65;65.75;97742.97;5039466;28;20533;-77
2022/02/06 08:57:00;;;;;;;3.73;1.00;;;6.00;66.30;;;4.59;65.09;97709.75;5039309;28;20435;-77
2022/02/06 08:59:27;;;;;;;3.53;1.80;;;6.00;66.20;;;4.53;65.34;97703.28;5041443;28;20499;-77
2022/02/06 09:01:55;;;;;;;3.73;1.50;;;6.00;66.30;;;4.61;65.82;97709.53;5053951;28;20520;-77
2022/02/06 09:04:22;;;;;;;4.23;2.00;;;6.00;66.10;;;4.75;65.60;97726.63;5036187;28;20438;-76
2022/02/06 09:06:49;;;;;;;4.70;1.50;;;6.10;66.20;;;4.77;65.43;97709.34;5037840;28;20613;-75
2022/02/06 09:09:16;;;;;;;4.27;1.00;;;6.10;65.90;;;4.68;64.48;97673.81;5036102;28;20525;-78
2022/02/06 09:11:45;;;;;;;5.33;1.40;;;6.10;65.70;;;4.80;64.82;97709.00;5037412;28;20438;-77
2022/02/06 09:14:13;;;;;;;2.70;1.60;;;6.20;65.80;;;5.00;64.37;97697.69;5054958;28;20543;-77
2022/02/06 09:16:41;;;;;;;1.60;1.10;;;6.30;65.60;;;4.89;64.58;97688.31;5032313;28;20489;-76
2022/02/06 09:19:12;;;;;;;3.47;1.53;;;6.30;65.30;;;4.94;63.92;97679.72;5033196;28;20469;-79
2022/02/06 09:21:39;;;;;;;7.60;1.80;;;6.30;65.30;;;4.79;64.81;97664.50;5036858;28;20442;-78
2022/02/06 09:24:07;;;;;;;7.00;1.80;;;6.30;65.10;;;5.09;64.03;97695.75;5037581;28;20800;-77
2022/02/06 09:26:35;;;;;;;3.43;1.40;;;6.40;65.10;;;5.15;63.66;97689.63;5040380;28;20865;-76
2022/02/06 09:29:02;;;;;;;5.73;1.67;;;6.60;64.70;;;5.09;63.38;97688.56;5057488;28;20433;-79
2022/02/06 09:31:29;;;;;;;3.40;1.50;;;6.50;64.80;;;5.30;63.25;97684.25;5057034;28;20453;-78
2022/02/06 09:36:24;;;;;;;1.33;0.93;;;6.60;64.60;;;5.09;63.63;97672.47;5053048;28;20918;-79
2022/02/06 09:38:51;;;;;;;2.50;1.40;;;6.60;64.50;;;5.38;63.29;97684.13;5056537;28;20561;-80
2022/02/06 09:41:19;;;;;;;1.70;1.30;;;6.70;64.60;;;5.20;63.07;97676.50;5056629;28;20568;-77
2022/02/06 09:43:46;;;;;;;4.53;1.60;;;6.70;64.50;;;5.03;63.79;97659.84;5071985;28;20441;-77
2022/02/06 09:46:14;;;;;;;4.20;1.60;;;6.50;64.70;;;5.23;63.67;97659.22;5055545;28;20433;-78
2022/02/06 09:48:44;;;;;;;2.30;1.20;;;6.60;65.00;;;5.31;64.13;97660.97;5056691;28;20441;-76
2022/02/06 09:51:11;;;;;;;3.20;1.20;;;6.70;65.30;;;5.38;63.88;97635.91;5056590;28;20437;-82
2022/02/06 09:53:40;;;;;;;2.57;1.10;;;6.80;65.50;;;5.31;64.97;97639.53;5059008;28;20493;-85
2022/02/06 09:56:12;;;;;;;1.73;1.10;;;6.70;65.40;;;5.10;64.80;97633.97;5055300;28;20521;-70
2022/02/06 09:58:59;;;;;;;2.83;1.30;;;6.50;65.70;;;5.14;65.61;97633.59;5056145;28;20457;-72
2022/02/06 10:01:27;;;;;;;6.37;1.40;;;6.50;66.40;;;5.48;65.06;97629.38;5071358;28;20913;-75
2022/02/06 10:04:03;;;;;;;2.43;1.10;;;6.70;66.50;;;5.46;64.54;97613.50;5054537;28;20472;-79
2022/02/06 10:06:43;;;;;;;3.17;1.53;;;6.90;66.30;;;5.46;65.06;97607.31;5072191;28;20486;-79
2022/02/06 10:09:16;;;;;;;2.70;1.37;;;6.90;66.00;;;5.32;64.64;97592.97;5057046;28;20448;-80
2022/02/06 10:11:47;;;;;;;2.93;1.20;;;6.80;65.90;;;5.37;64.30;97591.34;5055817;28;20449;-80
2022/02/06 10:14:14;;;;;;;3.63;1.67;;;6.80;65.70;;;5.71;63.57;97593.50;5057614;28;20913;-79
2022/02/06 10:16:41;;;;;;;6.70;1.90;;;7.00;65.50;;;5.65;64.07;97603.97;5060660;28;20475;-79
2022/02/06 10:19:09;;;;;;;3.17;1.50;;;7.00;65.10;;;5.79;63.17;97594.19;5058547;28;20552;-80
2022/02/06 10:21:36;;;;;;;1.40;0.80;;;7.10;65.00;;;5.61;63.63;97586.63;5058516;28;20889;-81
2022/02/06 10:24:13;;;;;;;6.33;1.73;;;7.00;65.00;;;5.78;63.29;97572.91;5057777;28;20448;-81
2022/02/06 10:26:52;;;;;;;1.87;1.03;;;7.10;65.00;;;5.53;64.12;97559.94;5057555;28;20437;-79
2022/02/06 10:29:30;;;;;;;2.30;1.70;;;7.00;65.10;;;5.66;63.40;97560.03;5057628;28;20539;-80
2022/02/06 10:32:02;;;;;;;7.20;1.70;;;7.00;65.10;;;5.92;62.88;97553.22;5058017;28;20452;-78
2022/02/06 10:34:36;;;;;;;4.63;1.77;;;7.20;64.90;;;5.31;63.42;97479.63;5058899;28;20430;-81
2022/02/06 10:37:18;;;;;;;3.23;1.70;;;7.20;64.90;;;5.63;63.96;97533.63;5066373;28;20446;-82
2022/02/06 10:39:57;;;;;;;2.33;1.20;;;7.10;65.20;;;5.81;63.65;97527.78;5064095;28;20438;-81
2022/02/06 10:42:29;;;;;;;5.13;2.17;;;7.10;65.30;;;5.78;64.41;97521.97;5060733;28;20556;-81
2022/02/06 10:45:16;;;;;;;2.50;1.50;;;7.10;65.30;;;6.02;63.83;97523.38;5056327;28;20504;-81
2022/02/06 10:47:45;;;;;;;3.57;1.33;;;7.20;65.40;;;5.90;63.37;97512.38;5057174;28;20914;-81
2022/02/06 10:50:15;;;;;;;4.03;1.60;;;7.30;65.00;;;5.81;63.99;97500.13;5058725;28;20430;-84
2022/02/06 10:52:44;;;;;;;2.33;1.23;;;7.20;65.00;;;5.86;64.06;97503.06;5074996;28;20481;-81
2022/02/06 10:55:11;;;;;;;2.90;1.17;;;7.20;65.10;;;5.89;64.03;97497.31;5055293;28;20575;-85
2022/02/06 10:57:56;;;;;;;2.60;1.13;;;7.20;65.50;;;5.61;64.98;97489.28;5055650;28;20980;-84
2022/02/06 11:00:28;;;;;;;2.20;1.27;;;7.10;65.20;;;5.63;64.15;97482.72;5056905;28;20437;-84
2022/02/06 11:03:00;;;;;;;3.10;1.37;;;7.00;65.20;;;5.78;64.57;97473.72;5054341;28;20473;-83
2022/02/06 11:05:35;;;;;;;1.63;1.10;;;7.10;65.40;;;5.89;63.94;97466.97;5038607;28;20457;-79
2022/02/06 11:08:04;;;;;;;3.23;1.20;;;7.20;65.10;;;5.90;64.01;97472.16;5045971;28;20449;-85
2022/02/06 11:10:34;;;;;;;2.80;1.50;;;7.30;65.20;;;5.88;63.60;97455.44;5058425;28;20434;-84
2022/02/06 11:13:05;;;;;;;6.23;1.83;;;7.30;65.20;;;5.89;64.63;97453.56;5057774;28;20437;-73
2022/02/06 11:15:38;;;;;;;6.10;1.60;;;7.30;65.40;;;5.68;64.96;97456.13;5055835;28;20529;-73
2022/02/06 11:18:10;;;;;;;2.37;1.10;;;7.10;65.40;;;5.76;64.98;97460.53;5051329;28;20469;-81
2022/02/06 11:20:39;;;;;;;2.63;1.53;;;7.10;65.60;;;5.82;64.59;97432.91;5038296;28;20442;-80
2022/02/06 11:23:06;;;;;;;7.20;1.40;;;7.10;65.60;;;5.87;64.15;97429.66;5038853;28;20940;-82
2022/02/06 11:25:35;;;;;;;2.23;1.43;;;7.20;65.60;;;5.93;64.28;97410.06;5038912;28;20500;-79
2022/02/06 11:28:06;;;;;;;4.70;1.70;;;7.20;65.30;;;5.74;64.53;97425.03;5039768;28;20454;-80
2022/02/06 11:30:37;;;;;;;6.97;1.33;;;7.20;65.30;;;5.90;64.04;97415.84;5038737;28;20451;-82
2022/02/06 11:33:05;;;;;;;3.23;1.47;;;7.20;65.30;;;5.79;64.33;97406.53;5036918;28;20501;-78
2022/02/06 11:35:35;;;;;;;3.73;1.60;;;7.20;65.20;;;5.94;63.70;97413.59;5036720;28;20534;-76
2022/02/06 11:44:34;;;;;;;2.47;1.60;;;7.20;65.20;;;5.81;64.31;97390.22;5019119;28;20431;-75
2022/02/06 11:47:13;;;;;;;5.00;2.07;;;7.20;65.30;;;5.81;64.16;97388.38;5033664;28;20914;-77
2022/02/06 11:49:44;;;;;;;9.30;2.00;;;7.10;65.50;;;5.95;64.58;97372.34;5035562;28;20509;-76
2022/02/06 11:52:11;;;;;;;4.00;1.27;;;7.30;65.50;;;5.90;64.09;97364.88;5036994;28;20442;-76
2022/02/06 11:54:46;;;;;;;2.33;1.17;;;7.30;65.30;;;6.04;64.38;97370.34;5034451;28;20457;-75
2022/02/06 11:57:20;;;;;;;1.93;1.17;;;7.30;65.50;;;5.99;63.83;97351.28;5054477;28;20548;-82
2022/02/06 12:00:18;;;;;;;1.33;1.17;;;7.40;65.20;;;5.87;64.18;97324.25;5052817;28;20457;-74
2022/02/06 12:02:50;;;;;;;5.10;1.30;;;7.30;65.20;;;5.86;64.15;97331.47;5054226;28;20438;-74
2022/02/06 12:05:27;;;;;;;3.90;1.83;;;7.20;65.20;;;6.09;63.92;97324.94;5053670;28;20436;-73
2022/02/06 12:08:07;;;;;;;2.63;1.73;;;7.40;65.30;;;6.01;63.75;97306.34;5069248;28;20442;-74
2022/02/06 12:11:16;;;;;;;2.73;0.97;;;7.40;65.00;;;6.15;63.56;97302.69;5052496;28;20487;-74